createdAt,value
2022-11-16T00:01:12.115Z,4.15
2022-11-16T00:03:39.544Z,4.07
2022-11-16T00:06:08.352Z,4.05
2022-11-16T00:08:38.114Z,4.57
2022-11-16T00:11:23.218Z,9.95
2022-11-16T00:13:49.974Z,11.07
2022-11-16T00:16:18.434Z,10.02
2022-11-16T00:18:45.336Z,10.50
2022-11-16T00:21:12.134Z,10.90
2022-11-16T00:23:39.385Z,10.70
2022-11-16T00:26:08.402Z,12.57
2022-11-16T00:28:36.006Z,10.90
2022-11-16T00:31:04.722Z,12.52
2022-11-16T00:33:31.999Z,11.43
2022-11-16T00:36:01.528Z,11.60
2022-11-16T00:38:28.802Z,11.23
2022-11-16T00:40:55.564Z,10.07
2022-11-16T00:43:22.744Z,10.32
2022-11-16T00:45:49.691Z,12.25
2022-11-16T00:48:16.819Z,10.90
2022-11-16T00:50:45.660Z,11.30
2022-11-16T00:53:14.387Z,10.60
2022-11-16T00:55:41.554Z,9.43
2022-11-16T00:58:08.343Z,9.15
2022-11-16T01:00:35.461Z,10.27
2022-11-16T01:03:02.291Z,12.73
2022-11-16T01:05:29.273Z,15.68
2022-11-16T01:07:57.337Z,17.25
2022-11-16T01:10:25.033Z,16.58
2022-11-16T01:12:53.195Z,18.02
2022-11-16T01:15:21.503Z,17.85
2022-11-16T01:17:48.727Z,15.82
2022-11-16T01:20:18.672Z,16.25
2022-11-16T01:22:45.896Z,16.05
2022-11-16T01:25:14.370Z,13.40
2022-11-16T01:27:42.687Z,15.07
2022-11-16T01:30:11.619Z,13.90
2022-11-16T01:32:38.693Z,14.38
2022-11-16T01:35:06.568Z,13.75
2022-11-16T01:37:33.864Z,14.10
2022-11-16T01:40:00.657Z,14.48
2022-11-16T01:42:29.693Z,14.82
2022-11-16T01:45:01.173Z,13.93
2022-11-16T01:50:02.396Z,11.60
2022-11-16T01:52:33.918Z,11.75
2022-11-16T01:55:01.842Z,12.52
2022-11-16T01:57:34.189Z,13.18
2022-11-16T02:00:03.888Z,11.10
2022-11-16T02:02:30.757Z,11.55
2022-11-16T02:04:59.026Z,10.70
2022-11-16T02:08:12.001Z,11.15
2022-11-16T02:11:01.686Z,10.25
2022-11-16T02:13:51.672Z,10.60
2022-11-16T02:16:51.801Z,10.10
2022-11-16T02:19:37.115Z,10.73
2022-11-16T02:22:18.386Z,9.40
2022-11-16T02:24:49.899Z,8.95
2022-11-16T02:27:43.933Z,9.68
2022-11-16T02:30:10.878Z,11.90
2022-11-16T02:32:52.549Z,11.27
2022-11-16T02:35:24.025Z,10.00
2022-11-16T02:40:26.651Z,7.65
2022-11-16T02:42:59.725Z,7.53
2022-11-16T02:45:32.603Z,7.18
2022-11-16T02:48:05.989Z,7.38
2022-11-16T02:50:34.108Z,6.03
2022-11-16T02:53:00.933Z,6.28
2022-11-16T02:55:32.527Z,8.05
2022-11-16T02:58:05.790Z,6.25
2022-11-16T03:00:48.591Z,6.25
2022-11-16T03:03:50.685Z,6.43
2022-11-16T03:06:23.676Z,6.38
2022-11-16T03:09:11.281Z,6.25
2022-11-16T03:11:59.603Z,6.95
2022-11-16T03:14:34.367Z,9.93
2022-11-16T03:17:03.702Z,7.28
2022-11-16T03:19:45.558Z,6.30
2022-11-16T03:22:37.071Z,6.90
2022-11-16T03:25:05.060Z,6.53
2022-11-16T03:27:39.402Z,8.02
2022-11-16T03:30:10.021Z,7.20
2022-11-16T03:33:16.587Z,7.05
2022-11-16T03:36:10.434Z,6.97
2022-11-16T03:38:40.956Z,8.05
2022-11-16T03:41:10.462Z,7.33
2022-11-16T03:43:39.409Z,6.55
2022-11-16T03:46:06.649Z,10.80
2022-11-16T03:48:38.574Z,10.75
2022-11-16T03:51:08.309Z,7.03
2022-11-16T03:53:35.802Z,5.28
2022-11-16T03:56:02.628Z,5.78
2022-11-16T03:58:29.424Z,7.72
2022-11-16T04:00:56.195Z,9.05
2022-11-16T04:03:22.980Z,9.05
2022-11-16T04:06:08.759Z,8.25
2022-11-16T04:08:54.033Z,12.38
2022-11-16T04:11:41.544Z,9.65
2022-11-16T04:14:33.393Z,6.07
2022-11-16T04:17:18.661Z,5.65
2022-11-16T04:20:04.010Z,6.30
2022-11-16T04:23:17.695Z,8.55
2022-11-16T04:25:46.675Z,9.88
2022-11-16T04:28:14.656Z,10.05
2022-11-16T04:31:11.928Z,10.20
2022-11-16T04:33:57.744Z,7.75
2022-11-16T04:36:42.905Z,8.80
2022-11-16T04:39:09.729Z,9.85
2022-11-16T04:41:55.896Z,10.57
2022-11-16T04:44:27.304Z,12.70
2022-11-16T04:47:08.453Z,13.65
2022-11-16T04:49:35.221Z,13.60
2022-11-16T04:52:01.950Z,13.70
2022-11-16T04:54:28.680Z,13.15
2022-11-16T04:56:55.449Z,14.07
2022-11-16T04:59:22.301Z,14.45
2022-11-16T05:02:07.630Z,11.65
2022-11-16T05:04:35.617Z,12.38
2022-11-16T05:07:02.402Z,15.02
2022-11-16T05:09:29.166Z,16.55
2022-11-16T05:11:55.894Z,16.42
2022-11-16T05:14:22.670Z,15.32
2022-11-16T05:16:49.434Z,17.45
2022-11-16T05:19:34.535Z,15.38
2022-11-16T05:22:01.294Z,12.07
2022-11-16T05:24:33.853Z,11.27
2022-11-16T05:27:02.481Z,12.82
2022-11-16T05:29:29.232Z,12.70
2022-11-16T05:31:56.026Z,14.95
2022-11-16T05:34:22.807Z,15.90
2022-11-16T05:36:49.503Z,15.70
2022-11-16T05:39:16.540Z,16.17
2022-11-16T05:41:43.295Z,17.52
2022-11-16T05:44:10.166Z,15.80
2022-11-16T05:46:37.108Z,13.98
2022-11-16T05:49:04.322Z,14.57
2022-11-16T05:51:31.014Z,13.55
2022-11-16T05:53:57.825Z,12.68
2022-11-16T05:56:24.619Z,12.32
2022-11-16T05:58:51.478Z,13.45
2022-11-16T06:01:18.231Z,11.57
2022-11-16T06:03:45.153Z,11.18
2022-11-16T06:06:11.960Z,11.13
2022-11-16T06:08:39.097Z,11.68
2022-11-16T06:11:08.140Z,11.38
2022-11-16T06:13:35.054Z,13.40
2022-11-16T06:16:03.097Z,14.27
2022-11-16T06:18:30.411Z,12.70
2022-11-16T06:20:57.319Z,12.57
2022-11-16T06:23:24.206Z,19.73
2022-11-16T06:25:57.351Z,16.73
2022-11-16T06:28:24.413Z,16.00
2022-11-16T06:30:51.387Z,20.77
2022-11-16T06:33:18.498Z,16.85
2022-11-16T06:35:45.804Z,32.17
2022-11-16T06:38:18.478Z,29.92
2022-11-16T06:40:52.715Z,16.58
2022-11-16T06:43:20.302Z,17.30
2022-11-16T06:45:51.082Z,14.20
2022-11-16T06:48:19.333Z,16.52
2022-11-16T06:50:48.756Z,17.23
2022-11-16T06:53:16.053Z,16.30
2022-11-16T06:55:42.990Z,17.20
2022-11-16T06:58:10.033Z,22.05
2022-11-16T07:00:36.801Z,29.48
2022-11-16T07:03:04.156Z,27.08
2022-11-16T07:05:31.759Z,24.52
2022-11-16T07:07:58.534Z,14.50
2022-11-16T07:10:25.696Z,19.85
2022-11-16T07:12:52.490Z,14.93
2022-11-16T07:15:19.730Z,14.38
2022-11-16T07:17:46.608Z,17.08
2022-11-16T07:20:13.653Z,15.38
2022-11-16T07:22:40.636Z,13.85
2022-11-16T07:25:08.196Z,21.77
2022-11-16T07:27:34.979Z,13.75
2022-11-16T07:30:02.369Z,12.07
2022-11-16T07:32:31.166Z,12.43
2022-11-16T07:34:59.360Z,12.02
2022-11-16T07:37:26.615Z,13.98
2022-11-16T07:39:53.362Z,15.13
2022-11-16T07:42:20.212Z,13.70
2022-11-16T07:44:47.005Z,15.00
2022-11-16T07:47:13.741Z,13.15
2022-11-16T07:49:40.557Z,12.80
2022-11-16T07:52:10.899Z,11.98
2022-11-16T07:54:37.777Z,11.55
2022-11-16T07:57:04.532Z,12.38
2022-11-16T07:59:31.339Z,11.73
2022-11-16T08:01:59.436Z,11.98
2022-11-16T08:04:26.343Z,12.95
2022-11-16T08:06:53.227Z,22.58
2022-11-16T08:09:20.159Z,14.77
2022-11-16T08:11:47.315Z,11.07
2022-11-16T08:14:15.722Z,10.95
2022-11-16T08:16:42.502Z,10.77
2022-11-16T08:19:10.403Z,11.48
2022-11-16T08:21:37.235Z,10.90
2022-11-16T08:24:04.216Z,13.07
2022-11-16T08:26:31.000Z,11.40
2022-11-16T08:28:57.866Z,11.15
2022-11-16T08:31:27.662Z,9.70
2022-11-16T08:33:54.622Z,9.15
2022-11-16T08:36:21.662Z,10.68
2022-11-16T08:38:50.193Z,8.25
2022-11-16T08:41:17.984Z,5.88
2022-11-16T08:43:47.314Z,6.03
2022-11-16T08:46:14.953Z,5.32
2022-11-16T08:48:42.598Z,5.97
2022-11-16T08:51:19.312Z,7.28
2022-11-16T08:53:48.679Z,6.22
2022-11-16T08:56:17.963Z,6.43
2022-11-16T08:58:47.401Z,7.38
2022-11-16T09:01:17.332Z,8.48
2022-11-16T09:03:45.138Z,8.80
2022-11-16T09:06:12.869Z,8.93
2022-11-16T09:08:41.617Z,11.55
2022-11-16T09:11:14.134Z,10.63
2022-11-16T09:13:40.943Z,10.77
2022-11-16T09:16:08.022Z,11.95
2022-11-16T09:18:35.681Z,11.07
2022-11-16T09:21:02.891Z,10.32
2022-11-16T09:23:30.205Z,9.32
2022-11-16T09:26:01.203Z,7.53
2022-11-16T09:28:27.925Z,7.82
2022-11-16T09:30:59.199Z,9.38
2022-11-16T09:33:25.922Z,8.77
2022-11-16T09:35:52.625Z,8.63
2022-11-16T09:38:26.990Z,8.93
2022-11-16T09:41:15.149Z,11.10
2022-11-16T09:44:10.277Z,8.23
2022-11-16T09:46:45.498Z,7.60
2022-11-16T09:49:26.137Z,7.78
2022-11-16T09:51:59.689Z,7.63
2022-11-16T09:54:31.801Z,7.40
2022-11-16T09:57:03.918Z,7.65
2022-11-16T09:59:57.560Z,7.65
2022-11-16T10:02:30.221Z,6.65
2022-11-16T10:05:15.636Z,6.22
2022-11-16T10:07:44.872Z,5.60
2022-11-16T10:10:17.170Z,6.13
2022-11-16T10:12:44.023Z,5.13
2022-11-16T10:15:16.786Z,5.10
2022-11-16T10:17:58.733Z,4.57
2022-11-16T10:21:03.672Z,5.35
2022-11-16T10:23:39.576Z,4.15
2022-11-16T10:26:26.012Z,3.03
2022-11-16T10:29:10.368Z,2.47
2022-11-16T10:31:55.647Z,2.97
2022-11-16T10:34:30.244Z,2.33
2022-11-16T10:37:03.393Z,2.25
2022-11-16T10:39:32.658Z,1.50
2022-11-16T10:42:07.506Z,1.60
2022-11-16T10:44:42.115Z,1.58
2022-11-16T10:47:41.956Z,1.17
2022-11-16T10:50:37.364Z,1.50
2022-11-16T10:53:04.386Z,1.05
2022-11-16T10:55:31.312Z,2.17
2022-11-16T10:58:03.843Z,2.85
2022-11-16T11:00:46.327Z,1.83
2022-11-16T11:03:13.884Z,1.63
2022-11-16T11:05:52.567Z,5.07
2022-11-16T11:08:30.509Z,2.42
2022-11-16T11:11:22.649Z,2.55
2022-11-16T11:14:03.848Z,1.70
2022-11-16T11:16:30.714Z,2.42
2022-11-16T11:18:57.489Z,3.63
2022-11-16T11:21:27.550Z,1.85
2022-11-16T11:24:06.147Z,1.85
2022-11-16T11:26:49.783Z,1.35
2022-11-16T11:29:30.374Z,1.95
2022-11-16T11:32:22.619Z,1.53
2022-11-16T11:34:55.810Z,1.33
2022-11-16T11:37:31.730Z,1.55
2022-11-16T11:40:24.358Z,1.08
2022-11-16T11:43:00.533Z,1.00
2022-11-16T11:45:36.494Z,1.02
2022-11-16T11:48:13.444Z,0.82
2022-11-16T11:50:49.856Z,0.70
2022-11-16T11:53:41.247Z,0.88
2022-11-16T11:56:12.124Z,1.13
2022-11-16T11:58:40.563Z,0.75
2022-11-16T12:01:51.905Z,1.10
2022-11-16T12:04:34.610Z,0.70
2022-11-16T12:07:07.144Z,0.80
2022-11-16T12:09:54.200Z,1.00
2022-11-16T12:12:47.589Z,1.13
2022-11-16T12:15:29.378Z,0.70
2022-11-16T12:18:02.221Z,0.77
2022-11-16T12:21:02.857Z,0.90
2022-11-16T12:23:39.696Z,1.27
2022-11-16T12:26:28.256Z,1.35
2022-11-16T12:28:58.019Z,1.15
2022-11-16T12:31:55.150Z,0.82
2022-11-16T12:34:54.218Z,1.17
2022-11-16T12:37:49.507Z,0.70
2022-11-16T12:40:43.805Z,1.17
2022-11-16T12:43:29.116Z,1.10
2022-11-16T12:46:05.759Z,1.17
2022-11-16T12:48:41.890Z,0.93
2022-11-16T12:51:47.424Z,1.60
2022-11-16T12:54:24.605Z,1.77
2022-11-16T12:57:19.896Z,1.10
2022-11-16T12:59:58.987Z,2.20
2022-11-16T13:02:45.032Z,0.90
2022-11-16T13:05:40.293Z,1.27
2022-11-16T13:08:20.054Z,1.05
2022-11-16T13:10:51.037Z,1.25
2022-11-16T13:13:41.468Z,1.45
2022-11-16T13:16:10.119Z,1.20
2022-11-16T13:18:41.784Z,1.45
2022-11-16T13:21:37.969Z,1.40
2022-11-16T13:24:27.245Z,0.95
2022-11-16T13:26:59.251Z,1.08
2022-11-16T13:29:40.969Z,1.23
2022-11-16T13:32:17.909Z,1.05
2022-11-16T13:34:46.071Z,0.93
2022-11-16T13:37:34.663Z,0.93
2022-11-16T13:40:01.378Z,1.00
2022-11-16T13:42:30.272Z,1.10
2022-11-16T13:45:17.755Z,1.08
2022-11-16T13:47:52.969Z,1.10
2022-11-16T13:50:23.731Z,1.38
2022-11-16T13:55:44.469Z,0.90
2022-11-16T13:58:20.266Z,0.90
2022-11-16T14:01:04.435Z,0.88
2022-11-16T14:03:38.582Z,0.73
2022-11-16T14:06:23.643Z,0.90
2022-11-16T14:09:00.623Z,0.95
2022-11-16T14:11:30.249Z,1.40
2022-11-16T14:13:57.408Z,1.00
2022-11-16T14:16:24.540Z,0.77
2022-11-16T14:19:00.512Z,0.88
2022-11-16T14:21:53.104Z,0.98
2022-11-16T14:24:35.441Z,0.88
2022-11-16T14:27:02.060Z,0.80
2022-11-16T14:29:47.580Z,1.05
2022-11-16T14:32:45.345Z,0.77
2022-11-16T14:35:39.012Z,0.98
2022-11-16T14:38:26.677Z,0.80
2022-11-16T14:40:59.641Z,0.85
2022-11-16T14:43:34.417Z,0.80
2022-11-16T14:46:29.457Z,0.85
2022-11-16T14:48:59.280Z,1.17
2022-11-16T14:51:34.689Z,0.90
2022-11-16T14:54:05.284Z,0.63
2022-11-16T14:56:31.979Z,0.82
2022-11-16T14:59:00.799Z,0.80
2022-11-16T15:01:34.950Z,0.60
2022-11-16T15:04:11.354Z,0.98
2022-11-16T15:06:48.130Z,0.82
2022-11-16T15:09:22.718Z,1.10
2022-11-16T15:12:09.882Z,1.17
2022-11-16T15:14:58.063Z,1.00
2022-11-16T15:17:31.751Z,0.60
2022-11-16T15:20:15.169Z,0.98
2022-11-16T15:22:44.958Z,1.08
2022-11-16T15:25:27.103Z,0.63
2022-11-16T15:27:55.455Z,0.90
2022-11-16T15:30:25.670Z,1.00
2022-11-16T15:32:53.434Z,0.77
2022-11-16T15:35:41.083Z,0.77
2022-11-16T15:38:21.674Z,0.73
2022-11-16T15:40:53.824Z,0.83
2022-11-16T15:43:23.844Z,1.00
2022-11-16T15:45:51.751Z,0.77
2022-11-16T15:48:22.641Z,0.82
2022-11-16T15:51:04.264Z,0.80
2022-11-16T15:53:35.514Z,1.02
2022-11-16T15:56:04.037Z,1.00
2022-11-16T15:58:36.501Z,1.05
2022-11-16T16:01:03.537Z,0.90
2022-11-16T16:03:33.014Z,1.17
2022-11-16T16:06:01.098Z,1.38
2022-11-16T16:08:35.318Z,0.90
2022-11-16T16:11:15.793Z,0.90
2022-11-16T16:14:03.118Z,0.95
2022-11-16T16:16:32.362Z,0.88
2022-11-16T16:19:06.521Z,1.25
2022-11-16T16:21:45.335Z,1.80
2022-11-16T16:24:45.514Z,2.85
2022-11-16T16:27:19.511Z,2.15
2022-11-16T16:29:47.803Z,1.70
2022-11-16T16:32:19.082Z,1.95
2022-11-16T16:34:45.866Z,1.98
2022-11-16T16:37:13.020Z,1.67
2022-11-16T16:39:41.058Z,1.63
2022-11-16T16:42:13.773Z,1.90
2022-11-16T16:44:41.876Z,1.75
2022-11-16T16:47:09.563Z,1.42
2022-11-16T16:49:36.912Z,1.95
2022-11-16T16:52:05.413Z,1.55
2022-11-16T16:54:32.650Z,2.40
2022-11-16T16:57:01.533Z,2.00
2022-11-16T16:59:30.087Z,1.73
2022-11-16T17:01:58.529Z,1.30
2022-11-16T17:04:25.662Z,1.40
2022-11-16T17:06:53.544Z,1.70
2022-11-16T17:09:20.647Z,2.47
2022-11-16T17:11:47.898Z,2.88
2022-11-16T17:14:14.706Z,2.58
2022-11-16T17:16:41.433Z,2.30
2022-11-16T17:19:08.225Z,2.08
2022-11-16T17:21:34.943Z,2.85
2022-11-16T17:24:01.727Z,2.50
2022-11-16T17:26:29.674Z,2.40
2022-11-16T17:28:57.627Z,2.33
2022-11-16T17:31:25.946Z,2.17
2022-11-16T17:33:53.029Z,3.72
2022-11-16T17:36:20.567Z,2.58
2022-11-16T17:38:47.335Z,2.03
2022-11-16T17:41:19.703Z,2.22
2022-11-16T17:43:47.000Z,2.50
2022-11-16T17:46:18.911Z,2.17
2022-11-16T17:48:47.458Z,2.65
2022-11-16T17:51:19.564Z,3.22
2022-11-16T17:53:47.437Z,3.72
2022-11-16T17:56:17.388Z,2.40
2022-11-16T17:58:47.076Z,5.07
2022-11-16T18:01:14.616Z,5.10
2022-11-16T18:03:41.476Z,20.27
2022-11-16T18:06:14.178Z,36.05
2022-11-16T18:08:42.072Z,16.40
2022-11-16T18:11:18.825Z,7.70
2022-11-16T18:13:46.713Z,7.07
2022-11-16T18:16:16.588Z,33.35
2022-11-16T18:18:44.164Z,78.38
2022-11-16T18:21:15.847Z,92.70
2022-11-16T18:23:45.626Z,71.70
2022-11-16T18:26:15.659Z,51.78
2022-11-16T18:28:44.917Z,52.90
2022-11-16T18:31:14.446Z,43.33
2022-11-16T18:33:41.745Z,51.58
2022-11-16T18:36:09.762Z,50.85
2022-11-16T18:38:37.583Z,50.92
2022-11-16T18:41:06.341Z,43.60
2022-11-16T18:43:34.747Z,45.92
2022-11-16T18:46:02.074Z,43.67
2022-11-16T18:48:28.857Z,38.17
2022-11-16T18:51:03.988Z,40.47
2022-11-16T18:53:32.924Z,38.28
2022-11-16T18:55:59.951Z,38.45
2022-11-16T19:01:17.122Z,41.08
2022-11-16T19:03:44.377Z,34.78
2022-11-16T19:06:11.920Z,33.65
2022-11-16T19:08:40.323Z,29.85
2022-11-16T19:11:15.378Z,28.80
2022-11-16T19:13:43.243Z,25.42
2022-11-16T19:16:11.602Z,26.27
2022-11-16T19:18:39.091Z,22.88
2022-11-16T19:21:11.226Z,23.67
2022-11-16T19:23:45.646Z,22.52
2022-11-16T19:26:17.141Z,21.23
2022-11-16T19:31:14.998Z,20.90
2022-11-16T19:33:42.140Z,22.58
2022-11-16T19:36:14.769Z,21.65
2022-11-16T19:38:41.935Z,22.45
2022-11-16T19:41:10.771Z,26.55
2022-11-16T19:43:37.850Z,29.70
2022-11-16T19:46:08.150Z,31.05
2022-11-16T19:48:35.212Z,31.70
2022-11-16T19:51:08.017Z,25.52
2022-11-16T19:53:35.497Z,22.83
2022-11-16T19:56:03.417Z,25.00
2022-11-16T19:58:31.172Z,25.58
2022-11-16T20:01:03.456Z,25.27
2022-11-16T20:03:31.127Z,25.60
2022-11-16T20:06:12.392Z,25.90
2022-11-16T20:08:41.180Z,35.28
2022-11-16T20:11:15.114Z,23.15
2022-11-16T20:13:42.724Z,22.05
2022-11-16T20:16:11.633Z,20.10
2022-11-16T20:18:39.571Z,21.55
2022-11-16T20:21:07.562Z,22.15
2022-11-16T20:23:35.550Z,21.13
2022-11-16T20:26:07.136Z,18.88
2022-11-16T20:28:38.653Z,19.75
2022-11-16T20:31:12.271Z,17.40
2022-11-16T20:33:40.444Z,17.88
2022-11-16T20:36:10.030Z,17.73
2022-11-16T20:38:38.467Z,17.77
2022-11-16T20:41:13.693Z,18.23
2022-11-16T20:43:41.712Z,16.50
2022-11-16T20:46:11.653Z,18.75
2022-11-16T20:48:40.608Z,18.92
2022-11-16T20:51:10.146Z,16.80
2022-11-16T20:53:37.662Z,16.13
2022-11-16T20:56:07.774Z,21.75
2022-11-16T20:58:34.905Z,15.55
2022-11-16T21:01:07.439Z,14.60
2022-11-16T21:03:34.994Z,15.07
2022-11-16T21:06:02.056Z,14.40
2022-11-16T21:08:31.431Z,13.55
2022-11-16T21:10:58.505Z,13.45
2022-11-16T21:13:43.614Z,13.57
2022-11-16T21:16:12.677Z,13.52
2022-11-16T21:18:40.220Z,15.75
2022-11-16T21:21:14.983Z,16.58
2022-11-16T21:23:45.111Z,13.43
2022-11-16T21:26:13.993Z,13.85
2022-11-16T21:28:44.755Z,15.18
2022-11-16T21:31:17.737Z,14.30
2022-11-16T21:33:45.992Z,13.88
2022-11-16T21:36:17.633Z,13.38
2022-11-16T21:38:45.036Z,13.77
2022-11-16T21:41:13.716Z,13.55
2022-11-16T21:43:41.097Z,14.20
2022-11-16T21:46:11.261Z,13.63
2022-11-16T21:48:38.784Z,14.82
2022-11-16T21:51:08.469Z,19.45
2022-11-16T21:53:36.200Z,24.38
2022-11-16T21:56:04.219Z,22.38
2022-11-16T21:58:31.022Z,20.77
2022-11-16T22:01:00.279Z,30.83
2022-11-16T22:03:32.083Z,20.50
2022-11-16T22:06:20.023Z,15.73
2022-11-16T22:08:47.571Z,21.75
2022-11-16T22:11:16.173Z,19.25
2022-11-16T22:13:43.449Z,18.08
2022-11-16T22:16:13.312Z,17.75
2022-11-16T22:18:40.087Z,17.73
2022-11-16T22:21:07.610Z,18.73
2022-11-16T22:23:35.648Z,15.60
2022-11-16T22:26:06.931Z,14.77
2022-11-16T22:28:35.347Z,16.70
2022-11-16T22:31:13.601Z,18.83
2022-11-16T22:33:40.991Z,17.88
2022-11-16T22:36:10.119Z,17.83
2022-11-16T22:38:36.919Z,17.77
2022-11-16T22:41:03.916Z,19.55
2022-11-16T22:43:31.533Z,20.20
2022-11-16T22:45:59.688Z,22.80
2022-11-16T22:48:34.189Z,22.35
2022-11-16T22:51:20.856Z,21.42
2022-11-16T22:53:48.086Z,22.33
2022-11-16T22:56:14.792Z,22.05
2022-11-16T22:58:41.489Z,20.60
2022-11-16T23:01:09.352Z,21.10
2022-11-16T23:03:37.189Z,19.65
2022-11-16T23:06:05.561Z,20.10
2022-11-16T23:08:33.786Z,21.73
2022-11-16T23:11:24.463Z,21.95
2022-11-16T23:14:11.309Z,28.88
2022-11-16T23:16:39.398Z,30.35
2022-11-16T23:19:29.050Z,31.05
2022-11-16T23:22:15.275Z,32.88
2022-11-16T23:25:00.876Z,28.52
2022-11-16T23:27:33.288Z,29.73
2022-11-16T23:30:03.768Z,31.95
2022-11-16T23:32:33.563Z,36.40
2022-11-16T23:35:00.322Z,50.92
2022-11-16T23:37:27.060Z,43.35
2022-11-16T23:39:53.898Z,48.25
2022-11-16T23:42:39.195Z,50.90
2022-11-16T23:45:06.815Z,50.70
2022-11-16T23:47:33.594Z,48.97
2022-11-16T23:50:00.325Z,44.72
2022-11-16T23:52:27.433Z,50.83
2022-11-16T23:54:54.188Z,46.83
2022-11-16T23:57:20.947Z,45.58
2022-11-16T23:59:47.789Z,44.40
